Time,TemperatureF,DewpointF,PressureIn,WindDirection,WindDirectionDegrees,WindSpeedMPH,WindSpeedGustMPH,Humidity,HourlyPrecipIn,Conditions,Clouds,dailyrainin,SoftwareType,DateUTC
2013-04-01 00:09:00,32.0,25.6,29.92,ENE,67,0.0,-999.0,77,-99.99,,,0.00,Acu-Link.com,2013-04-01 07:09:00,
2013-04-01 00:24:00,32.0,25.3,29.92,ENE,67,0.0,-999.0,76,-99.99,,,0.00,Acu-Link.com,2013-04-01 07:24:00,
2013-04-01 00:39:00,32.0,25.9,29.92,ENE,67,0.0,-999.0,78,-99.99,,,0.00,Acu-Link.com,2013-04-01 07:39:00,
2013-04-01 00:55:00,30.2,24.8,29.92,ESE,112,0.0,-999.0,80,-99.99,,,0.00,Acu-Link.com,2013-04-01 07:55:00,
2013-04-01 01:10:00,30.2,24.8,29.92,ESE,112,0.0,-999.0,80,-99.99,,,0.00,Acu-Link.com,2013-04-01 08:10:00,
2013-04-01 01:25:00,30.2,24.8,29.92,ESE,112,0.0,-999.0,80,-99.99,,,0.00,Acu-Link.com,2013-04-01 08:25:00,
2013-04-01 01:40:00,30.2,24.8,29.92,ESE,112,0.0,-999.0,80,-99.99,,,0.00,Acu-Link.com,2013-04-01 08:40:00,
2013-04-01 01:56:00,30.2,25.4,29.92,SE,135,0.0,-999.0,82,-99.99,,,0.00,Acu-Link.com,2013-04-01 08:56:00,
2013-04-01 02:41:00,28.4,23.9,29.92,ENE,67,0.0,-999.0,83,-99.99,,,0.00,Acu-Link.com,2013-04-01 09:41:00,
2013-04-01 02:57:00,28.4,23.9,29.91,ENE,67,0.0,-999.0,83,-99.99,,,0.00,Acu-Link.com,2013-04-01 09:57:00,
2013-04-01 03:12:00,28.4,24.2,29.92,ENE,67,0.0,-999.0,84,-99.99,,,0.00,Acu-Link.com,2013-04-01 10:12:00,
2013-04-01 03:27:00,28.4,24.2,29.91,ENE,67,0.0,-999.0,84,-99.99,,,0.00,Acu-Link.com,2013-04-01 10:27:00,
2013-04-01 03:42:00,28.4,24.2,29.91,ENE,67,0.0,-999.0,84,-99.99,,,0.00,Acu-Link.com,2013-04-01 10:42:00,
2013-04-01 03:57:00,28.4,24.2,29.91,ESE,112,0.0,-999.0,84,-99.99,,,0.00,Acu-Link.com,2013-04-01 10:57:00,
2013-04-01 04:28:00,26.6,22.4,29.91,SSE,157,0.0,-999.0,84,-99.99,,,0.00,Acu-Link.com,2013-04-01 11:28:00,
2013-04-01 04:43:00,26.6,22.4,29.91,South,180,0.0,-999.0,84,-99.99,,,0.00,Acu-Link.com,2013-04-01 11:43:00,
2013-04-01 04:58:00,26.6,23.3,29.91,ENE,67,0.0,-999.0,87,-99.99,,,0.00,Acu-Link.com,2013-04-01 11:58:00,
2013-04-01 05:13:00,26.6,23.0,29.91,ENE,67,0.0,-999.0,86,-99.99,,,0.00,Acu-Link.com,2013-04-01 12:13:00,
2013-04-01 05:29:00,26.6,23.0,29.90,SSW,202,0.0,-999.0,86,-99.99,,,0.00,Acu-Link.com,2013-04-01 12:29:00,
2013-04-01 05:44:00,26.6,22.4,29.90,South,180,0.0,-999.0,84,-99.99,,,0.00,Acu-Link.com,2013-04-01 12:44:00,
2013-04-01 05:59:00,26.6,23.0,29.90,SW,225,0.0,-999.0,86,-99.99,,,0.00,Acu-Link.com,2013-04-01 12:59:00,
2013-04-01 06:14:00,26.6,22.4,29.90,South,180,0.0,-999.0,84,-99.99,,,0.00,Acu-Link.com,2013-04-01 13:14:00,
2013-04-01 06:30:00,26.6,22.7,29.90,ESE,112,0.0,-999.0,85,-99.99,,,0.00,Acu-Link.com,2013-04-01 13:30:00,
2013-04-01 06:45:00,26.6,23.3,29.90,ESE,112,0.0,-999.0,87,-99.99,,,0.00,Acu-Link.com,2013-04-01 13:45:00,
2013-04-01 07:00:00,26.6,23.0,29.90,ESE,112,0.0,-999.0,86,-99.99,,,0.00,Acu-Link.com,2013-04-01 14:00:00,
2013-04-01 07:16:00,26.6,22.7,29.90,ESE,112,0.0,-999.0,85,-99.99,,,0.00,Acu-Link.com,2013-04-01 14:16:00,
2013-04-01 07:46:00,28.4,24.8,29.91,ESE,112,0.0,-999.0,86,-99.99,,,0.00,Acu-Link.com,2013-04-01 14:46:00,
2013-04-01 08:02:00,28.4,24.8,29.91,SSW,202,0.0,-999.0,86,-99.99,,,0.00,Acu-Link.com,2013-04-01 15:02:00,
2013-04-01 08:17:00,30.2,26.2,29.90,WNW,292,0.0,-999.0,85,-99.99,,,0.00,Acu-Link.com,2013-04-01 15:17:00,
2013-04-01 08:32:00,32.0,26.5,29.90,SW,225,1.1,-999.0,80,-99.99,,,0.00,Acu-Link.com,2013-04-01 15:32:00,
2013-04-01 08:47:00,35.6,28.1,29.90,SE,135,0.0,-999.0,74,-99.99,,,0.00,Acu-Link.com,2013-04-01 15:47:00,
2013-04-01 09:03:00,35.6,28.1,29.90,West,270,1.6,-999.0,74,-99.99,,,0.00,Acu-Link.com,2013-04-01 16:03:00,
2013-04-01 09:18:00,35.6,28.1,29.89,SSW,202,0.0,-999.0,74,-99.99,,,0.00,Acu-Link.com,2013-04-01 16:18:00,
2013-04-01 09:33:00,41.0,31.6,29.89,East,90,1.6,-999.0,69,-99.99,,,0.00,Acu-Link.com,2013-04-01 16:33:00,
2013-04-01 09:48:00,42.8,32.2,29.89,South,180,1.1,-999.0,66,-99.99,,,0.00,Acu-Link.com,2013-04-01 16:48:00,
2013-04-01 10:03:00,44.6,32.0,29.89,South,180,2.7,-999.0,61,-99.99,,,0.00,Acu-Link.com,2013-04-01 17:03:00,
2013-04-01 10:19:00,48.2,33.2,29.89,South,180,1.1,-999.0,56,-99.99,,,0.00,Acu-Link.com,2013-04-01 17:19:00,
2013-04-01 10:34:00,50.0,34.0,29.89,South,180,1.1,-999.0,54,-99.99,,,0.00,Acu-Link.com,2013-04-01 17:34:00,
2013-04-01 10:49:00,53.6,36.4,29.88,SSE,157,1.6,-999.0,52,-99.99,,,0.00,Acu-Link.com,2013-04-01 17:49:00,
2013-04-01 11:05:00,53.6,34.4,29.87,East,90,1.6,-999.0,48,-99.99,,,0.00,Acu-Link.com,2013-04-01 18:05:00,
2013-04-01 11:20:00,55.4,33.3,29.87,ESE,112,2.0,-999.0,43,-99.99,,,0.00,Acu-Link.com,2013-04-01 18:20:00,
2013-04-01 11:35:00,55.4,32.7,29.87,East,90,1.6,-999.0,42,-99.99,,,0.00,Acu-Link.com,2013-04-01 18:35:00,
2013-04-01 11:50:00,59.0,34.7,29.86,SE,135,2.7,-999.0,40,-99.99,,,0.00,Acu-Link.com,2013-04-01 18:50:00,
2013-04-01 12:06:00,59.0,33.4,29.86,SSE,157,2.0,-999.0,38,-99.99,,,0.00,Acu-Link.com,2013-04-01 19:06:00,
2013-04-01 12:21:00,60.8,34.4,29.86,SSE,157,3.1,-999.0,37,-99.99,,,0.00,Acu-Link.com,2013-04-01 19:21:00,
2013-04-01 12:36:00,60.8,33.0,29.85,SE,135,0.0,-999.0,35,-99.99,,,0.00,Acu-Link.com,2013-04-01 19:36:00,
2013-04-01 12:51:00,62.6,33.8,29.84,NNE,22,1.6,-999.0,34,-99.99,,,0.00,Acu-Link.com,2013-04-01 19:51:00,
2013-04-01 13:06:00,62.6,34.6,29.84,SE,135,3.1,-999.0,35,-99.99,,,0.00,Acu-Link.com,2013-04-01 20:06:00,
2013-04-01 13:21:00,62.6,33.1,29.83,ESE,112,3.1,-999.0,33,-99.99,,,0.00,Acu-Link.com,2013-04-01 20:21:00,
2013-04-01 13:36:00,62.6,33.1,29.83,SE,135,1.6,-999.0,33,-99.99,,,0.00,Acu-Link.com,2013-04-01 20:36:00,
2013-04-01 13:51:00,64.4,32.3,29.82,NNE,22,4.7,-999.0,30,-99.99,,,0.00,Acu-Link.com,2013-04-01 20:51:00,
2013-04-01 14:07:00,64.4,31.5,29.81,ESE,112,1.6,-999.0,29,-99.99,,,0.00,Acu-Link.com,2013-04-01 21:07:00,
2013-04-01 14:22:00,64.4,31.5,29.81,SE,135,1.6,-999.0,29,-99.99,,,0.00,Acu-Link.com,2013-04-01 21:22:00,
2013-04-01 14:52:00,66.2,30.3,29.81,West,270,3.1,-999.0,26,-99.99,,,0.00,Acu-Link.com,2013-04-01 21:52:00,
2013-04-01 15:07:00,68.0,32.8,29.80,WSW,247,1.1,-999.0,27,-99.99,,,0.00,Acu-Link.com,2013-04-01 22:07:00,
2013-04-01 15:23:00,64.4,30.6,29.80,East,90,1.1,-999.0,28,-99.99,,,0.00,Acu-Link.com,2013-04-01 22:23:00,
2013-04-01 15:38:00,64.4,30.6,29.80,NE,45,1.6,-999.0,28,-99.99,,,0.00,Acu-Link.com,2013-04-01 22:38:00,
2013-04-01 15:53:00,64.4,29.7,29.79,ESE,112,2.0,-999.0,27,-99.99,,,0.00,Acu-Link.com,2013-04-01 22:53:00,
2013-04-01 16:08:00,68.0,30.9,29.79,West,270,3.6,-999.0,25,-99.99,,,0.00,Acu-Link.com,2013-04-01 23:08:00,
2013-04-01 16:38:00,68.0,29.9,29.78,South,180,1.6,-999.0,24,-99.99,,,0.00,Acu-Link.com,2013-04-01 23:38:00,
2013-04-01 16:53:00,66.2,32.1,29.78,WSW,247,2.7,-999.0,28,-99.99,,,0.00,Acu-Link.com,2013-04-01 23:53:00,
2013-04-01 17:08:00,64.4,29.7,29.78,WSW,247,0.0,-999.0,27,-99.99,,,0.00,Acu-Link.com,2013-04-02 00:08:00,
2013-04-01 17:23:00,64.4,29.7,29.78,NE,45,2.0,-999.0,27,-99.99,,,0.00,Acu-Link.com,2013-04-02 00:23:00,
2013-04-01 17:38:00,62.6,29.0,29.78,NW,315,1.1,-999.0,28,-99.99,,,0.00,Acu-Link.com,2013-04-02 00:38:00,
2013-04-01 17:53:00,62.6,30.7,29.77,West,270,1.1,-999.0,30,-99.99,,,0.00,Acu-Link.com,2013-04-02 00:53:00,
2013-04-01 18:09:00,60.8,29.2,29.77,NE,45,1.1,-999.0,30,-99.99,,,0.00,Acu-Link.com,2013-04-02 01:09:00,
2013-04-01 18:24:00,60.8,30.0,29.77,East,90,0.0,-999.0,31,-99.99,,,0.00,Acu-Link.com,2013-04-02 01:24:00,
2013-04-01 18:39:00,59.0,29.9,29.77,NNE,22,0.0,-999.0,33,-99.99,,,0.00,Acu-Link.com,2013-04-02 01:39:00,
2013-04-01 18:54:00,59.0,-41.5,29.77,NE,45,0.0,-999.0,0,-99.99,,,0.00,Acu-Link.com,2013-04-02 01:54:00,
2013-04-01 19:10:00,55.4,28.9,29.77,NE,45,0.0,-999.0,36,-99.99,,,0.00,Acu-Link.com,2013-04-02 02:10:00,
2013-04-01 19:25:00,55.4,29.6,29.77,WNW,292,0.0,-999.0,37,-99.99,,,0.00,Acu-Link.com,2013-04-02 02:25:00,
2013-04-01 19:40:00,53.6,29.3,29.77,NNW,337,0.0,-999.0,39,-99.99,,,0.00,Acu-Link.com,2013-04-02 02:40:00,
2013-04-01 19:55:00,53.6,29.9,29.77,NW,315,0.0,-999.0,40,-99.99,,,0.00,Acu-Link.com,2013-04-02 02:55:00,
2013-04-01 20:10:00,53.6,29.3,29.77,ENE,67,0.0,-999.0,39,-99.99,,,0.00,Acu-Link.com,2013-04-02 03:10:00,
2013-04-01 20:36:00,50.0,29.5,29.77,NNW,337,0.0,-999.0,45,-99.99,,,0.00,Acu-Link.com,2013-04-02 03:36:00,
2013-04-01 21:06:00,48.2,29.9,29.79,WNW,292,0.0,-999.0,49,-99.99,,,0.00,Acu-Link.com,2013-04-02 04:06:00,
2013-04-01 21:21:00,46.4,29.3,29.79,West,270,0.0,-999.0,51,-99.99,,,0.00,Acu-Link.com,2013-04-02 04:21:00,
2013-04-01 21:37:00,46.4,30.7,29.80,SE,135,0.0,-999.0,54,-99.99,,,0.00,Acu-Link.com,2013-04-02 04:37:00,
2013-04-01 21:52:00,44.6,29.0,29.80,SSE,157,0.0,-999.0,54,-99.99,,,0.00,Acu-Link.com,2013-04-02 04:52:00,
2013-04-01 22:07:00,42.8,29.1,29.80,West,270,0.0,-999.0,58,-99.99,,,0.00,Acu-Link.com,2013-04-02 05:07:00,
2013-04-01 22:22:00,42.8,29.9,29.81,NE,45,0.0,-999.0,60,-99.99,,,0.00,Acu-Link.com,2013-04-02 05:22:00,
2013-04-01 22:37:00,42.8,29.5,29.81,West,270,0.0,-999.0,59,-99.99,,,0.00,Acu-Link.com,2013-04-02 05:37:00,
2013-04-01 22:52:00,44.6,30.7,29.82,NE,45,0.0,-999.0,58,-99.99,,,0.00,Acu-Link.com,2013-04-02 05:52:00,
2013-04-01 23:07:00,42.8,28.6,29.82,NNE,22,0.0,-999.0,57,-99.99,,,0.00,Acu-Link.com,2013-04-02 06:07:00,
2013-04-01 23:23:00,42.8,28.2,29.82,East,90,0.0,-999.0,56,-99.99,,,0.00,Acu-Link.com,2013-04-02 06:23:00,
2013-04-01 23:38:00,42.8,28.6,29.83,NNE,22,0.0,-999.0,57,-99.99,,,0.00,Acu-Link.com,2013-04-02 06:38:00,
2013-04-01 23:53:00,42.8,28.6,29.83,NNE,22,0.0,-999.0,57,-99.99,,,0.00,Acu-Link.com,2013-04-02 06:53:00,